Portada
METAR-TAF:

METAR-TAF

Aeroports :

Juliaca, Perú

latitud: 15-29S, longitud: 070-09W, altitud: 3826 m

Observació

L'informe es va fer fa 31 minuts, a les 20:00 UTC
Vent 6 kt del Nord
Temperatura 17°C
Humitat 19%
Pressió 1033 hPa
Visibilitat 10 km o més
Núvols disperses a una alçada de 2500 ft

METAR: SPJL 212000Z 01006KT 9999 SCT025 17/M07 Q1033 RMK PP000

Hora: 15:31 (20:31 UTC)

Pronòstic

L'informe es va fer fa 27 hores i 31 minuts, a les 17:00 UTC
Pronòstic vàlid del 21 a les 18 UTC al 22 a les 18 UTC
Vent 6 kt del Est/Nord-Est
Visibilitat 10 km o més
Escasses núvols a una alçada de 2000 ft

TAF: SPJL 211700Z 2118/2218 07006KT 9999 FEW020 TX16/2119Z TNM04/2211Z

Observacions i pronòstics meteorològics de més de 4000 aeroports (METAR i TAF).

Les estacions disponibles són els punts grocs i vermells al mapa.

Posi el ratolí al punt desitjat per veure el nom de l'estació.

Feu clic per veure les observacions i els pronòstics meteorològics.

Per canviar el mapa: feu clic els botons verds amb una creu de color negre per apropar; al botó verd amb un guió per allunyar la imatge; o en les fletxes verdes per a mapes adjacents.


METAR-TAF: